Athens, Alabama
Current Conditions -  °F | °C
As of 6:53 AM on Thursday 27 Nov 2014 (Local Time) from KDCU Reporting Station
Overcast Overcast  
Wind Chill:   Ceiling: 2400
Heat Index:   Visibility: 10mi
Dew Point:   Wind: 10mph
Humidity: 76%   Direction: 310°NW
Pressure: 30.3"   Gusts: NA
Location:  34.8°N, 86.97°W
Report Text: KDCU 271253Z AUTO 31009KT 10SM BKN024 OVC028 04/00 A3030 RMK AO2 SLP262 T00390000
Loading
Personal Weather Stations






























Interactive Weather Map New forecast layout! Learn more

10-Day Weather Forecast

Advertisements
Track Severe Weather on mobile